Archival Weather

Fukuoka

Fukuoka, Japan (RJFF)

Report from: Tuesday, August 16, 2022 3:00 PM JST
Current time: Sunday, November 27, 2022 6:10 PM JST

Current weather
Weather history
Weather forecast

Present weatherLight thunderstorm with rain, thunderstorm with rain
Temperature28.0°C (82.4°F)
Heat index33.5°C (92.3°F)
Dew point26.0°C (78.8°F)
Winds 6 kts (3.1 m/s, 6.9 mph) Vrb
Winds variableWinds variable from Southeast (140°) to South-Southwest (200°)
Visibility6.2 mi. (10 km)
Clouds Few clouds 1,000 ft. (305 m)
Few clouds with cumulonimbus 2,000 ft. (610 m)
Scattered clouds 3,000 ft. (914 m)
Ceiling: Broken clouds 4,000 ft. (1,219 m)
Altimeter29.74 in.Hg (1007 mB)
Relative humidity89 %
Density altitude2,154 ft. (657 m)
Flight conditions Visual Meteorological Conditions
Raw dataRJFF 160600Z 16006KT 140V200 9999 -TSRA FEW010 FEW020CB SCT030 BKN040 28/26 Q1007 TEMPO 3000 TSRA BR
An error has occurred. This application may no longer respond until reloaded. Reload 🗙